<?xml version="1.0" encoding="UTF-8" standalone="no" ?>
<gpx xmlns="http://www.topografix.com/GPX/1/1" xmlns:xsi="http://www.w3.org/2001/XMLSchema-instance" xsi:schemaLocation="http://www.topografix.com/GPX/1/1 http://www.topografix.com/GPX/1/1/gpx.xsd" version="1.1" creator="VisuGPX - https://www.visugpx.com">
  <metadata>
    <name>ARQUES LA SEYNE SUR MER 1497 KM</name>
    <desc><![CDATA[Rando de Arques dans le Pas de Calais jusque La Seyne sur Mer dans le Var, 1497 km]]></desc>
  </metadata>
  <trk>
    <name><![CDATA[17 - Vitry le Francois Drosnay 28.3 km]]></name>
    <extensions>
      <line xmlns="http://www.topografix.com/GPX/gpx_style/0/2">
        <color>00FFFF</color>
        <width>4</width>
      </line>
    </extensions>
    <trkseg>
      <trkpt lat="48.72492" lon="4.58458">
        <ele>103</ele>
        <time>2021-11-04T17:27:36+01:00</time>
      </trkpt>
      <trkpt lat="48.72554" lon="4.58502">
        <ele>103</ele>
        <time>2021-11-04T17:27:41+01:00</time>
      </trkpt>
      <trkpt lat="48.72574" lon="4.58437">
        <ele>103</ele>
        <time>2021-11-04T17:27:46+01:00</time>
      </trkpt>
      <trkpt lat="48.72615" lon="4.58461">
        <ele>103</ele>
        <time>2021-11-04T17:27:51+01:00</time>
      </trkpt>
      <trkpt lat="48.7271" lon="4.58141">
        <ele>98</ele>
        <time>2021-11-04T17:27:56+01:00</time>
      </trkpt>
      <trkpt lat="48.72888" lon="4.57539">
        <ele>98</ele>
        <time>2021-11-04T17:28:01+01:00</time>
      </trkpt>
      <trkpt lat="48.72951" lon="4.57331">
        <ele>96</ele>
        <time>2021-11-04T17:28:06+01:00</time>
      </trkpt>
      <trkpt lat="48.72942" lon="4.57172">
        <ele>94</ele>
        <time>2021-11-04T17:28:11+01:00</time>
      </trkpt>
      <trkpt lat="48.7298" lon="4.56932">
        <ele>97</ele>
        <time>2021-11-04T17:28:16+01:00</time>
      </trkpt>
      <trkpt lat="48.72989" lon="4.56614">
        <ele>97</ele>
        <time>2021-11-04T17:28:21+01:00</time>
      </trkpt>
      <trkpt lat="48.73028" lon="4.56371">
        <ele>95</ele>
        <time>2021-11-04T17:28:26+01:00</time>
      </trkpt>
      <trkpt lat="48.73019" lon="4.56296">
        <ele>95</ele>
        <time>2021-11-04T17:28:31+01:00</time>
      </trkpt>
      <trkpt lat="48.72727" lon="4.56427">
        <ele>96</ele>
        <time>2021-11-04T17:28:36+01:00</time>
      </trkpt>
      <trkpt lat="48.7269" lon="4.55899">
        <ele>95</ele>
        <time>2021-11-04T17:28:41+01:00</time>
      </trkpt>
      <trkpt lat="48.72575" lon="4.55483">
        <ele>98</ele>
        <time>2021-11-04T17:28:46+01:00</time>
      </trkpt>
      <trkpt lat="48.72569" lon="4.55269">
        <ele>102</ele>
        <time>2021-11-04T17:28:51+01:00</time>
      </trkpt>
      <trkpt lat="48.72436" lon="4.54811">
        <ele>108</ele>
        <time>2021-11-04T17:28:56+01:00</time>
      </trkpt>
      <trkpt lat="48.72202" lon="4.54939">
        <ele>115</ele>
        <time>2021-11-04T17:29:01+01:00</time>
      </trkpt>
      <trkpt lat="48.72048" lon="4.54869">
        <ele>115</ele>
        <time>2021-11-04T17:29:06+01:00</time>
      </trkpt>
      <trkpt lat="48.7192" lon="4.54886">
        <ele>117</ele>
        <time>2021-11-04T17:29:11+01:00</time>
      </trkpt>
      <trkpt lat="48.71789" lon="4.54764">
        <ele>121</ele>
        <time>2021-11-04T17:29:16+01:00</time>
      </trkpt>
      <trkpt lat="48.71427" lon="4.54509">
        <ele>122</ele>
        <time>2021-11-04T17:29:21+01:00</time>
      </trkpt>
      <trkpt lat="48.71219" lon="4.54556">
        <ele>119</ele>
        <time>2021-11-04T17:29:26+01:00</time>
      </trkpt>
      <trkpt lat="48.71105" lon="4.54554">
        <ele>115</ele>
        <time>2021-11-04T17:29:31+01:00</time>
      </trkpt>
      <trkpt lat="48.70732" lon="4.54493">
        <ele>105</ele>
        <time>2021-11-04T17:29:36+01:00</time>
      </trkpt>
      <trkpt lat="48.70705" lon="4.54692">
        <ele>104</ele>
        <time>2021-11-04T17:29:41+01:00</time>
      </trkpt>
      <trkpt lat="48.70659" lon="4.5482">
        <ele>101</ele>
        <time>2021-11-04T17:29:46+01:00</time>
      </trkpt>
      <trkpt lat="48.70481" lon="4.54819">
        <ele>99</ele>
        <time>2021-11-04T17:29:51+01:00</time>
      </trkpt>
      <trkpt lat="48.70351" lon="4.54757">
        <ele>102</ele>
        <time>2021-11-04T17:29:56+01:00</time>
      </trkpt>
      <trkpt lat="48.70353" lon="4.54178">
        <ele>107</ele>
        <time>2021-11-04T17:30:01+01:00</time>
      </trkpt>
      <trkpt lat="48.70332" lon="4.53947">
        <ele>112</ele>
        <time>2021-11-04T17:30:06+01:00</time>
      </trkpt>
      <trkpt lat="48.7019" lon="4.53924">
        <ele>116</ele>
        <time>2021-11-04T17:30:11+01:00</time>
      </trkpt>
      <trkpt lat="48.70038" lon="4.54022">
        <ele>104</ele>
        <time>2021-11-04T17:30:16+01:00</time>
      </trkpt>
      <trkpt lat="48.69867" lon="4.54087">
        <ele>102</ele>
        <time>2021-11-04T17:30:21+01:00</time>
      </trkpt>
      <trkpt lat="48.6963" lon="4.54126">
        <ele>103</ele>
        <time>2021-11-04T17:30:26+01:00</time>
      </trkpt>
      <trkpt lat="48.69476" lon="4.54124">
        <ele>106</ele>
        <time>2021-11-04T17:30:31+01:00</time>
      </trkpt>
      <trkpt lat="48.69517" lon="4.54406">
        <ele>103</ele>
        <time>2021-11-04T17:30:36+01:00</time>
      </trkpt>
      <trkpt lat="48.69546" lon="4.54572">
        <ele>101</ele>
        <time>2021-11-04T17:30:41+01:00</time>
      </trkpt>
      <trkpt lat="48.6957" lon="4.5491">
        <ele>101</ele>
        <time>2021-11-04T17:30:46+01:00</time>
      </trkpt>
      <trkpt lat="48.69651" lon="4.55221">
        <ele>102</ele>
        <time>2021-11-04T17:30:51+01:00</time>
      </trkpt>
      <trkpt lat="48.69697" lon="4.55548">
        <ele>101</ele>
        <time>2021-11-04T17:30:56+01:00</time>
      </trkpt>
      <trkpt lat="48.69337" lon="4.55649">
        <ele>124</ele>
        <time>2021-11-04T17:31:01+01:00</time>
      </trkpt>
      <trkpt lat="48.6923" lon="4.55958">
        <ele>127</ele>
        <time>2021-11-04T17:31:06+01:00</time>
      </trkpt>
      <trkpt lat="48.69115" lon="4.56178">
        <ele>138</ele>
        <time>2021-11-04T17:31:11+01:00</time>
      </trkpt>
      <trkpt lat="48.68985" lon="4.56098">
        <ele>148</ele>
        <time>2021-11-04T17:31:16+01:00</time>
      </trkpt>
      <trkpt lat="48.6887" lon="4.56056">
        <ele>148</ele>
        <time>2021-11-04T17:31:21+01:00</time>
      </trkpt>
      <trkpt lat="48.68608" lon="4.56015">
        <ele>122</ele>
        <time>2021-11-04T17:31:26+01:00</time>
      </trkpt>
      <trkpt lat="48.68454" lon="4.56072">
        <ele>114</ele>
        <time>2021-11-04T17:31:31+01:00</time>
      </trkpt>
      <trkpt lat="48.683" lon="4.56085">
        <ele>120</ele>
        <time>2021-11-04T17:31:36+01:00</time>
      </trkpt>
      <trkpt lat="48.67995" lon="4.56202">
        <ele>145</ele>
        <time>2021-11-04T17:31:41+01:00</time>
      </trkpt>
      <trkpt lat="48.67751" lon="4.56474">
        <ele>144</ele>
        <time>2021-11-04T17:31:46+01:00</time>
      </trkpt>
      <trkpt lat="48.67649" lon="4.56461">
        <ele>144</ele>
        <time>2021-11-04T17:31:51+01:00</time>
      </trkpt>
      <trkpt lat="48.67645" lon="4.56425">
        <ele>144</ele>
        <time>2021-11-04T17:31:56+01:00</time>
      </trkpt>
      <trkpt lat="48.67361" lon="4.56814">
        <ele>142</ele>
        <time>2021-11-04T17:32:01+01:00</time>
      </trkpt>
      <trkpt lat="48.67248" lon="4.56905">
        <ele>143</ele>
        <time>2021-11-04T17:32:06+01:00</time>
      </trkpt>
      <trkpt lat="48.66958" lon="4.57029">
        <ele>155</ele>
        <time>2021-11-04T17:32:11+01:00</time>
      </trkpt>
      <trkpt lat="48.66806" lon="4.57203">
        <ele>139</ele>
        <time>2021-11-04T17:32:16+01:00</time>
      </trkpt>
      <trkpt lat="48.67082" lon="4.58007">
        <ele>121</ele>
        <time>2021-11-04T17:32:21+01:00</time>
      </trkpt>
      <trkpt lat="48.67225" lon="4.58306">
        <ele>105</ele>
        <time>2021-11-04T17:32:26+01:00</time>
      </trkpt>
      <trkpt lat="48.67363" lon="4.58568">
        <ele>100</ele>
        <time>2021-11-04T17:32:31+01:00</time>
      </trkpt>
      <trkpt lat="48.6734" lon="4.58695">
        <ele>99</ele>
        <time>2021-11-04T17:32:36+01:00</time>
      </trkpt>
      <trkpt lat="48.67388" lon="4.58902">
        <ele>100</ele>
        <time>2021-11-04T17:32:41+01:00</time>
      </trkpt>
      <trkpt lat="48.67172" lon="4.59185">
        <ele>99</ele>
        <time>2021-11-04T17:32:46+01:00</time>
      </trkpt>
      <trkpt lat="48.66953" lon="4.59437">
        <ele>101</ele>
        <time>2021-11-04T17:32:51+01:00</time>
      </trkpt>
      <trkpt lat="48.66837" lon="4.59639">
        <ele>102</ele>
        <time>2021-11-04T17:32:56+01:00</time>
      </trkpt>
      <trkpt lat="48.66509" lon="4.59995">
        <ele>103</ele>
        <time>2021-11-04T17:33:01+01:00</time>
      </trkpt>
      <trkpt lat="48.66314" lon="4.60254">
        <ele>102</ele>
        <time>2021-11-04T17:33:06+01:00</time>
      </trkpt>
      <trkpt lat="48.66215" lon="4.60295">
        <ele>103</ele>
        <time>2021-11-04T17:33:11+01:00</time>
      </trkpt>
      <trkpt lat="48.66059" lon="4.60443">
        <ele>102</ele>
        <time>2021-11-04T17:33:16+01:00</time>
      </trkpt>
      <trkpt lat="48.66019" lon="4.6042">
        <ele>100</ele>
        <time>2021-11-04T17:33:21+01:00</time>
      </trkpt>
      <trkpt lat="48.65875" lon="4.60594">
        <ele>101</ele>
        <time>2021-11-04T17:33:26+01:00</time>
      </trkpt>
      <trkpt lat="48.6563" lon="4.60866">
        <ele>102</ele>
        <time>2021-11-04T17:33:31+01:00</time>
      </trkpt>
      <trkpt lat="48.65558" lon="4.61201">
        <ele>103</ele>
        <time>2021-11-04T17:33:36+01:00</time>
      </trkpt>
      <trkpt lat="48.65491" lon="4.61325">
        <ele>102</ele>
        <time>2021-11-04T17:33:41+01:00</time>
      </trkpt>
      <trkpt lat="48.65435" lon="4.61393">
        <ele>105</ele>
        <time>2021-11-04T17:33:46+01:00</time>
      </trkpt>
      <trkpt lat="48.65311" lon="4.61699">
        <ele>109</ele>
        <time>2021-11-04T17:33:51+01:00</time>
      </trkpt>
      <trkpt lat="48.65171" lon="4.61831">
        <ele>111</ele>
        <time>2021-11-04T17:33:56+01:00</time>
      </trkpt>
      <trkpt lat="48.65128" lon="4.61504">
        <ele>118</ele>
        <time>2021-11-04T17:34:01+01:00</time>
      </trkpt>
      <trkpt lat="48.65048" lon="4.61152">
        <ele>119</ele>
        <time>2021-11-04T17:34:06+01:00</time>
      </trkpt>
      <trkpt lat="48.6482" lon="4.61489">
        <ele>119</ele>
        <time>2021-11-04T17:34:11+01:00</time>
      </trkpt>
      <trkpt lat="48.6465" lon="4.61712">
        <ele>117</ele>
        <time>2021-11-04T17:34:16+01:00</time>
      </trkpt>
      <trkpt lat="48.64364" lon="4.62283">
        <ele>108</ele>
        <time>2021-11-04T17:34:21+01:00</time>
      </trkpt>
      <trkpt lat="48.64149" lon="4.62568">
        <ele>105</ele>
        <time>2021-11-04T17:34:26+01:00</time>
      </trkpt>
      <trkpt lat="48.64055" lon="4.62623">
        <ele>108</ele>
        <time>2021-11-04T17:34:31+01:00</time>
      </trkpt>
      <trkpt lat="48.63892" lon="4.62812">
        <ele>110</ele>
        <time>2021-11-04T17:34:36+01:00</time>
      </trkpt>
      <trkpt lat="48.63769" lon="4.63012">
        <ele>106</ele>
        <time>2021-11-04T17:34:41+01:00</time>
      </trkpt>
      <trkpt lat="48.63705" lon="4.63336">
        <ele>107</ele>
        <time>2021-11-04T17:34:46+01:00</time>
      </trkpt>
      <trkpt lat="48.6357" lon="4.63531">
        <ele>107</ele>
        <time>2021-11-04T17:34:51+01:00</time>
      </trkpt>
      <trkpt lat="48.63493" lon="4.63676">
        <ele>111</ele>
        <time>2021-11-04T17:34:56+01:00</time>
      </trkpt>
      <trkpt lat="48.63179" lon="4.63858">
        <ele>117</ele>
        <time>2021-11-04T17:35:01+01:00</time>
      </trkpt>
      <trkpt lat="48.63043" lon="4.63985">
        <ele>116</ele>
        <time>2021-11-04T17:35:06+01:00</time>
      </trkpt>
      <trkpt lat="48.62968" lon="4.6426">
        <ele>114</ele>
        <time>2021-11-04T17:35:11+01:00</time>
      </trkpt>
      <trkpt lat="48.62879" lon="4.6441">
        <ele>111</ele>
        <time>2021-11-04T17:35:16+01:00</time>
      </trkpt>
      <trkpt lat="48.62706" lon="4.6455">
        <ele>107</ele>
        <time>2021-11-04T17:35:21+01:00</time>
      </trkpt>
      <trkpt lat="48.62709" lon="4.64701">
        <ele>106</ele>
        <time>2021-11-04T17:35:26+01:00</time>
      </trkpt>
      <trkpt lat="48.6261" lon="4.64833">
        <ele>109</ele>
        <time>2021-11-04T17:35:31+01:00</time>
      </trkpt>
      <trkpt lat="48.62148" lon="4.64717">
        <ele>113</ele>
        <time>2021-11-04T17:35:36+01:00</time>
      </trkpt>
      <trkpt lat="48.61768" lon="4.6446">
        <ele>114</ele>
        <time>2021-11-04T17:35:41+01:00</time>
      </trkpt>
      <trkpt lat="48.61297" lon="4.64314">
        <ele>112</ele>
        <time>2021-11-04T17:35:46+01:00</time>
      </trkpt>
      <trkpt lat="48.60877" lon="4.63902">
        <ele>108</ele>
        <time>2021-11-04T17:35:51+01:00</time>
      </trkpt>
      <trkpt lat="48.60656" lon="4.63825">
        <ele>112</ele>
        <time>2021-11-04T17:35:56+01:00</time>
      </trkpt>
      <trkpt lat="48.60429" lon="4.63396">
        <ele>113</ele>
        <time>2021-11-04T17:36:01+01:00</time>
      </trkpt>
      <trkpt lat="48.60003" lon="4.62923">
        <ele>112</ele>
        <time>2021-11-04T17:36:06+01:00</time>
      </trkpt>
      <trkpt lat="48.59606" lon="4.62752">
        <ele>115</ele>
        <time>2021-11-04T17:36:11+01:00</time>
      </trkpt>
      <trkpt lat="48.59055" lon="4.62606">
        <ele>135</ele>
        <time>2021-11-04T17:36:16+01:00</time>
      </trkpt>
      <trkpt lat="48.58584" lon="4.62657">
        <ele>137</ele>
        <time>2021-11-04T17:36:21+01:00</time>
      </trkpt>
      <trkpt lat="48.58351" lon="4.62597">
        <ele>135</ele>
        <time>2021-11-04T17:36:26+01:00</time>
      </trkpt>
      <trkpt lat="48.58107" lon="4.62271">
        <ele>133</ele>
        <time>2021-11-04T17:36:31+01:00</time>
      </trkpt>
      <trkpt lat="48.5792" lon="4.62142">
        <ele>134</ele>
        <time>2021-11-04T17:36:36+01:00</time>
      </trkpt>
      <trkpt lat="48.57766" lon="4.61645">
        <ele>134</ele>
        <time>2021-11-04T17:36:41+01:00</time>
      </trkpt>
      <trkpt lat="48.57625" lon="4.61513">
        <ele>131</ele>
        <time>2021-11-04T17:36:46+01:00</time>
      </trkpt>
      <trkpt lat="48.57564" lon="4.61422">
        <ele>132</ele>
        <time>2021-11-04T17:36:51+01:00</time>
      </trkpt>
      <trkpt lat="48.57487" lon="4.61354">
        <ele>135</ele>
        <time>2021-11-04T17:36:56+01:00</time>
      </trkpt>
    </trkseg>
  </trk>
</gpx>